sensor_id;sensor_type;location;lat;lon;timestamp;P1;durP1;ratioP1;P2;durP2;ratioP2
9445;SDS011;4761;49.490;10.908;2023-03-13T00:03:39;2.43;;;1.33;;
9445;SDS011;4761;49.490;10.908;2023-03-13T00:06:04;2.93;;;1.50;;
9445;SDS011;4761;49.490;10.908;2023-03-13T00:08:30;2.10;;;1.30;;
9445;SDS011;4761;49.490;10.908;2023-03-13T00:10:56;2.50;;;1.33;;
9445;SDS011;4761;49.490;10.908;2023-03-13T00:13:21;2.00;;;1.30;;
9445;SDS011;4761;49.490;10.908;2023-03-13T00:15:47;1.43;;;1.20;;
9445;SDS011;4761;49.490;10.908;2023-03-13T00:18:12;1.93;;;1.40;;
9445;SDS011;4761;49.490;10.908;2023-03-13T00:20:38;2.87;;;1.40;;
9445;SDS011;4761;49.490;10.908;2023-03-13T00:23:03;2.73;;;1.30;;
9445;SDS011;4761;49.490;10.908;2023-03-13T00:25:29;2.57;;;1.40;;
9445;SDS011;4761;49.490;10.908;2023-03-13T00:27:54;2.17;;;1.27;;
9445;SDS011;4761;49.490;10.908;2023-03-13T00:30:20;1.73;;;1.20;;
9445;SDS011;4761;49.490;10.908;2023-03-13T00:32:45;1.67;;;1.10;;
9445;SDS011;4761;49.490;10.908;2023-03-13T00:35:12;2.83;;;1.30;;
9445;SDS011;4761;49.490;10.908;2023-03-13T00:37:38;2.37;;;1.30;;
9445;SDS011;4761;49.490;10.908;2023-03-13T00:40:04;1.50;;;1.13;;
9445;SDS011;4761;49.490;10.908;2023-03-13T00:42:31;2.60;;;1.47;;
9445;SDS011;4761;49.490;10.908;2023-03-13T00:44:57;2.20;;;1.37;;
9445;SDS011;4761;49.490;10.908;2023-03-13T00:47:23;3.40;;;1.40;;
9445;SDS011;4761;49.490;10.908;2023-03-13T00:49:49;1.87;;;1.40;;
9445;SDS011;4761;49.490;10.908;2023-03-13T00:52:14;1.90;;;1.03;;
9445;SDS011;4761;49.490;10.908;2023-03-13T00:54:40;1.97;;;1.20;;
9445;SDS011;4761;49.490;10.908;2023-03-13T00:57:05;2.17;;;1.50;;
9445;SDS011;4761;49.490;10.908;2023-03-13T00:59:31;2.00;;;1.27;;
9445;SDS011;4761;49.490;10.908;2023-03-13T01:01:57;2.20;;;1.40;;
9445;SDS011;4761;49.490;10.908;2023-03-13T01:04:22;2.67;;;1.27;;
9445;SDS011;4761;49.490;10.908;2023-03-13T01:06:48;3.00;;;1.53;;
9445;SDS011;4761;49.490;10.908;2023-03-13T01:09:14;2.73;;;1.30;;
9445;SDS011;4761;49.490;10.908;2023-03-13T01:11:41;2.67;;;1.27;;
9445;SDS011;4761;49.490;10.908;2023-03-13T01:14:17;2.10;;;1.40;;
9445;SDS011;4761;49.490;10.908;2023-03-13T01:16:43;2.10;;;1.30;;
9445;SDS011;4761;49.490;10.908;2023-03-13T01:19:10;1.97;;;1.30;;
9445;SDS011;4761;49.490;10.908;2023-03-13T01:21:38;2.77;;;1.30;;
9445;SDS011;4761;49.490;10.908;2023-03-13T01:24:04;3.10;;;1.53;;
9445;SDS011;4761;49.490;10.908;2023-03-13T01:26:30;1.17;;;0.97;;
9445;SDS011;4761;49.490;10.908;2023-03-13T01:28:55;2.07;;;1.43;;
9445;SDS011;4761;49.490;10.908;2023-03-13T01:31:23;2.03;;;1.40;;
9445;SDS011;4761;49.490;10.908;2023-03-13T01:33:52;4.27;;;1.40;;
9445;SDS011;4761;49.490;10.908;2023-03-13T01:36:19;2.53;;;1.40;;
9445;SDS011;4761;49.490;10.908;2023-03-13T01:38:48;1.73;;;1.10;;
9445;SDS011;4761;49.490;10.908;2023-03-13T01:41:15;2.03;;;1.30;;
9445;SDS011;4761;49.490;10.908;2023-03-13T01:43:41;2.60;;;1.40;;
9445;SDS011;4761;49.490;10.908;2023-03-13T01:49:14;2.23;;;1.33;;
9445;SDS011;4761;49.490;10.908;2023-03-13T01:51:43;1.37;;;1.10;;
9445;SDS011;4761;49.490;10.908;2023-03-13T01:54:14;3.17;;;1.40;;
9445;SDS011;4761;49.490;10.908;2023-03-13T01:56:49;2.37;;;1.20;;
9445;SDS011;4761;49.490;10.908;2023-03-13T01:59:21;3.00;;;1.43;;
9445;SDS011;4761;49.490;10.908;2023-03-13T02:01:55;3.23;;;1.70;;
9445;SDS011;4761;49.490;10.908;2023-03-13T02:04:24;1.97;;;1.23;;
9445;SDS011;4761;49.490;10.908;2023-03-13T02:06:53;2.03;;;1.30;;
9445;SDS011;4761;49.490;10.908;2023-03-13T02:09:25;2.33;;;1.30;;
9445;SDS011;4761;49.490;10.908;2023-03-13T02:12:00;2.67;;;1.20;;
9445;SDS011;4761;49.490;10.908;2023-03-13T02:14:32;2.53;;;1.30;;
9445;SDS011;4761;49.490;10.908;2023-03-13T02:17:00;2.17;;;1.20;;
9445;SDS011;4761;49.490;10.908;2023-03-13T02:24:50;3.13;;;1.33;;
9445;SDS011;4761;49.490;10.908;2023-03-13T02:27:33;2.20;;;1.23;;
9445;SDS011;4761;49.490;10.908;2023-03-13T02:29:59;2.30;;;1.33;;
9445;SDS011;4761;49.490;10.908;2023-03-13T02:32:25;2.67;;;1.43;;
9445;SDS011;4761;49.490;10.908;2023-03-13T02:34:53;2.10;;;1.27;;
9445;SDS011;4761;49.490;10.908;2023-03-13T02:37:22;2.60;;;1.40;;
9445;SDS011;4761;49.490;10.908;2023-03-13T02:39:50;2.50;;;1.30;;
9445;SDS011;4761;49.490;10.908;2023-03-13T02:42:17;1.80;;;1.20;;
9445;SDS011;4761;49.490;10.908;2023-03-13T02:44:45;2.73;;;1.40;;
9445;SDS011;4761;49.490;10.908;2023-03-13T02:47:11;2.30;;;1.43;;
9445;SDS011;4761;49.490;10.908;2023-03-13T02:49:41;1.33;;;0.97;;
9445;SDS011;4761;49.490;10.908;2023-03-13T02:52:10;1.93;;;1.10;;
9445;SDS011;4761;49.490;10.908;2023-03-13T02:54:46;2.33;;;1.03;;
9445;SDS011;4761;49.490;10.908;2023-03-13T02:57:14;2.00;;;1.07;;
9445;SDS011;4761;49.490;10.908;2023-03-13T02:59:40;2.70;;;1.30;;
9445;SDS011;4761;49.490;10.908;2023-03-13T03:02:05;1.90;;;1.07;;
9445;SDS011;4761;49.490;10.908;2023-03-13T03:04:31;3.93;;;1.53;;
9445;SDS011;4761;49.490;10.908;2023-03-13T03:06:57;3.67;;;1.47;;
9445;SDS011;4761;49.490;10.908;2023-03-13T03:09:23;2.67;;;1.47;;
9445;SDS011;4761;49.490;10.908;2023-03-13T03:11:49;2.83;;;1.30;;
9445;SDS011;4761;49.490;10.908;2023-03-13T03:14:14;2.67;;;1.23;;
9445;SDS011;4761;49.490;10.908;2023-03-13T03:16:40;1.90;;;1.10;;
9445;SDS011;4761;49.490;10.908;2023-03-13T03:19:06;2.10;;;1.40;;
9445;SDS011;4761;49.490;10.908;2023-03-13T03:21:33;2.83;;;1.20;;
9445;SDS011;4761;49.490;10.908;2023-03-13T03:23:59;2.53;;;1.33;;
9445;SDS011;4761;49.490;10.908;2023-03-13T03:26:24;3.43;;;1.60;;
9445;SDS011;4761;49.490;10.908;2023-03-13T03:28:50;2.17;;;1.20;;
9445;SDS011;4761;49.490;10.908;2023-03-13T03:31:16;2.73;;;1.30;;
9445;SDS011;4761;49.490;10.908;2023-03-13T03:33:42;2.00;;;1.07;;
9445;SDS011;4761;49.490;10.908;2023-03-13T03:36:10;3.30;;;1.50;;
9445;SDS011;4761;49.490;10.908;2023-03-13T03:38:37;3.57;;;1.63;;
9445;SDS011;4761;49.490;10.908;2023-03-13T03:41:03;2.30;;;1.27;;
9445;SDS011;4761;49.490;10.908;2023-03-13T03:43:30;2.47;;;1.13;;
9445;SDS011;4761;49.490;10.908;2023-03-13T03:45:56;2.43;;;1.23;;
9445;SDS011;4761;49.490;10.908;2023-03-13T03:48:21;2.57;;;1.20;;
9445;SDS011;4761;49.490;10.908;2023-03-13T03:50:47;1.73;;;1.03;;
9445;SDS011;4761;49.490;10.908;2023-03-13T03:53:13;2.27;;;1.30;;
9445;SDS011;4761;49.490;10.908;2023-03-13T03:55:38;3.13;;;1.23;;
9445;SDS011;4761;49.490;10.908;2023-03-13T03:58:04;2.87;;;1.30;;
9445;SDS011;4761;49.490;10.908;2023-03-13T04:00:30;2.33;;;1.20;;
9445;SDS011;4761;49.490;10.908;2023-03-13T04:02:55;2.03;;;1.20;;
9445;SDS011;4761;49.490;10.908;2023-03-13T04:05:21;2.67;;;1.50;;
9445;SDS011;4761;49.490;10.908;2023-03-13T04:07:49;2.17;;;1.27;;
9445;SDS011;4761;49.490;10.908;2023-03-13T04:10:14;1.67;;;1.20;;
9445;SDS011;4761;49.490;10.908;2023-03-13T04:12:40;2.97;;;1.50;;
9445;SDS011;4761;49.490;10.908;2023-03-13T04:15:06;2.87;;;1.30;;
9445;SDS011;4761;49.490;10.908;2023-03-13T04:17:32;2.93;;;1.50;;
9445;SDS011;4761;49.490;10.908;2023-03-13T04:19:58;2.50;;;1.30;;
9445;SDS011;4761;49.490;10.908;2023-03-13T04:22:24;2.07;;;1.10;;
9445;SDS011;4761;49.490;10.908;2023-03-13T04:24:50;2.73;;;1.50;;
9445;SDS011;4761;49.490;10.908;2023-03-13T04:27:16;1.87;;;1.20;;
9445;SDS011;4761;49.490;10.908;2023-03-13T04:29:42;3.57;;;1.57;;
9445;SDS011;4761;49.490;10.908;2023-03-13T04:32:07;2.33;;;1.20;;
9445;SDS011;4761;49.490;10.908;2023-03-13T04:34:33;2.33;;;1.20;;
9445;SDS011;4761;49.490;10.908;2023-03-13T04:36:59;2.50;;;1.50;;
9445;SDS011;4761;49.490;10.908;2023-03-13T04:39:25;2.07;;;1.10;;
9445;SDS011;4761;49.490;10.908;2023-03-13T04:41:51;2.87;;;1.27;;
9445;SDS011;4761;49.490;10.908;2023-03-13T04:44:17;2.03;;;1.40;;
9445;SDS011;4761;49.490;10.908;2023-03-13T04:46:43;3.13;;;1.57;;
9445;SDS011;4761;49.490;10.908;2023-03-13T04:49:09;2.07;;;1.30;;
9445;SDS011;4761;49.490;10.908;2023-03-13T04:51:34;2.30;;;1.43;;
9445;SDS011;4761;49.490;10.908;2023-03-13T04:54:00;2.03;;;1.10;;
9445;SDS011;4761;49.490;10.908;2023-03-13T04:56:26;2.17;;;1.20;;
9445;SDS011;4761;49.490;10.908;2023-03-13T04:58:52;2.27;;;1.10;;
9445;SDS011;4761;49.490;10.908;2023-03-13T05:01:18;3.17;;;1.60;;
9445;SDS011;4761;49.490;10.908;2023-03-13T05:03:44;1.83;;;1.23;;
9445;SDS011;4761;49.490;10.908;2023-03-13T05:06:09;2.57;;;1.37;;
9445;SDS011;4761;49.490;10.908;2023-03-13T05:08:35;4.47;;;1.40;;
9445;SDS011;4761;49.490;10.908;2023-03-13T05:11:02;1.60;;;1.20;;
9445;SDS011;4761;49.490;10.908;2023-03-13T05:13:28;1.97;;;1.20;;
9445;SDS011;4761;49.490;10.908;2023-03-13T05:15:53;2.63;;;1.50;;
9445;SDS011;4761;49.490;10.908;2023-03-13T05:18:19;2.40;;;1.37;;
9445;SDS011;4761;49.490;10.908;2023-03-13T05:20:45;2.23;;;1.30;;
9445;SDS011;4761;49.490;10.908;2023-03-13T05:23:10;1.23;;;1.03;;
9445;SDS011;4761;49.490;10.908;2023-03-13T05:25:36;2.83;;;1.53;;
9445;SDS011;4761;49.490;10.908;2023-03-13T05:28:01;3.30;;;1.40;;
9445;SDS011;4761;49.490;10.908;2023-03-13T05:30:27;1.80;;;1.10;;
9445;SDS011;4761;49.490;10.908;2023-03-13T05:32:52;1.40;;;1.00;;
9445;SDS011;4761;49.490;10.908;2023-03-13T05:35:18;2.63;;;1.40;;
9445;SDS011;4761;49.490;10.908;2023-03-13T05:37:43;2.23;;;1.47;;
9445;SDS011;4761;49.490;10.908;2023-03-13T05:40:12;2.70;;;1.23;;
9445;SDS011;4761;49.490;10.908;2023-03-13T05:42:38;2.67;;;1.30;;
9445;SDS011;4761;49.490;10.908;2023-03-13T05:45:04;1.87;;;1.10;;
9445;SDS011;4761;49.490;10.908;2023-03-13T05:47:30;2.40;;;1.20;;
9445;SDS011;4761;49.490;10.908;2023-03-13T05:49:56;1.93;;;1.10;;
9445;SDS011;4761;49.490;10.908;2023-03-13T05:52:21;2.43;;;1.00;;
9445;SDS011;4761;49.490;10.908;2023-03-13T05:54:47;2.23;;;1.10;;
9445;SDS011;4761;49.490;10.908;2023-03-13T05:57:13;2.97;;;1.30;;
9445;SDS011;4761;49.490;10.908;2023-03-13T05:59:38;2.20;;;1.37;;
9445;SDS011;4761;49.490;10.908;2023-03-13T06:02:04;2.00;;;1.10;;
9445;SDS011;4761;49.490;10.908;2023-03-13T06:04:29;2.73;;;1.10;;
9445;SDS011;4761;49.490;10.908;2023-03-13T06:06:55;2.73;;;1.37;;
9445;SDS011;4761;49.490;10.908;2023-03-13T06:09:20;1.70;;;1.10;;
9445;SDS011;4761;49.490;10.908;2023-03-13T06:11:46;3.23;;;1.30;;
9445;SDS011;4761;49.490;10.908;2023-03-13T06:14:11;1.57;;;1.07;;
9445;SDS011;4761;49.490;10.908;2023-03-13T06:16:37;2.53;;;1.30;;
9445;SDS011;4761;49.490;10.908;2023-03-13T06:19:02;1.63;;;1.03;;
9445;SDS011;4761;49.490;10.908;2023-03-13T06:21:28;1.50;;;0.93;;
9445;SDS011;4761;49.490;10.908;2023-03-13T06:23:54;2.67;;;1.17;;
9445;SDS011;4761;49.490;10.908;2023-03-13T06:26:19;2.77;;;1.30;;
9445;SDS011;4761;49.490;10.908;2023-03-13T06:28:45;1.97;;;1.23;;
9445;SDS011;4761;49.490;10.908;2023-03-13T06:31:12;1.53;;;1.00;;
9445;SDS011;4761;49.490;10.908;2023-03-13T06:33:38;2.20;;;1.03;;
9445;SDS011;4761;49.490;10.908;2023-03-13T06:36:03;2.10;;;1.00;;
9445;SDS011;4761;49.490;10.908;2023-03-13T06:38:29;1.87;;;1.07;;
9445;SDS011;4761;49.490;10.908;2023-03-13T06:40:55;2.50;;;1.37;;
9445;SDS011;4761;49.490;10.908;2023-03-13T06:43:21;1.87;;;1.13;;
9445;SDS011;4761;49.490;10.908;2023-03-13T06:45:46;2.50;;;1.13;;
9445;SDS011;4761;49.490;10.908;2023-03-13T06:48:12;2.13;;;1.10;;
9445;SDS011;4761;49.490;10.908;2023-03-13T06:50:38;1.50;;;0.93;;
9445;SDS011;4761;49.490;10.908;2023-03-13T06:53:04;1.90;;;1.00;;
9445;SDS011;4761;49.490;10.908;2023-03-13T06:55:30;2.03;;;1.00;;
9445;SDS011;4761;49.490;10.908;2023-03-13T06:57:55;1.63;;;0.87;;
9445;SDS011;4761;49.490;10.908;2023-03-13T07:00:21;1.43;;;1.00;;
9445;SDS011;4761;49.490;10.908;2023-03-13T07:02:47;1.90;;;0.90;;
9445;SDS011;4761;49.490;10.908;2023-03-13T07:05:14;1.63;;;1.00;;
9445;SDS011;4761;49.490;10.908;2023-03-13T07:07:40;1.27;;;0.90;;
9445;SDS011;4761;49.490;10.908;2023-03-13T07:10:06;1.00;;;0.90;;
9445;SDS011;4761;49.490;10.908;2023-03-13T07:12:35;1.50;;;1.00;;
9445;SDS011;4761;49.490;10.908;2023-03-13T07:15:01;2.07;;;1.20;;
9445;SDS011;4761;49.490;10.908;2023-03-13T07:17:28;1.10;;;0.90;;
9445;SDS011;4761;49.490;10.908;2023-03-13T07:19:53;2.47;;;1.30;;
9445;SDS011;4761;49.490;10.908;2023-03-13T07:22:19;1.67;;;1.10;;
9445;SDS011;4761;49.490;10.908;2023-03-13T07:24:44;1.10;;;0.90;;
9445;SDS011;4761;49.490;10.908;2023-03-13T07:27:10;1.80;;;1.10;;
9445;SDS011;4761;49.490;10.908;2023-03-13T07:29:35;1.77;;;1.10;;
9445;SDS011;4761;49.490;10.908;2023-03-13T07:32:01;1.23;;;0.90;;
9445;SDS011;4761;49.490;10.908;2023-03-13T07:34:26;1.63;;;1.10;;
9445;SDS011;4761;49.490;10.908;2023-03-13T07:36:52;0.90;;;0.80;;
9445;SDS011;4761;49.490;10.908;2023-03-13T07:39:17;1.43;;;1.00;;
9445;SDS011;4761;49.490;10.908;2023-03-13T07:41:43;1.57;;;1.20;;
9445;SDS011;4761;49.490;10.908;2023-03-13T07:44:08;1.37;;;0.87;;
9445;SDS011;4761;49.490;10.908;2023-03-13T07:46:34;1.43;;;1.00;;
9445;SDS011;4761;49.490;10.908;2023-03-13T07:48:59;1.87;;;1.00;;
9445;SDS011;4761;49.490;10.908;2023-03-13T07:51:25;1.60;;;0.90;;
9445;SDS011;4761;49.490;10.908;2023-03-13T07:53:51;1.60;;;1.00;;
9445;SDS011;4761;49.490;10.908;2023-03-13T07:56:18;1.30;;;0.87;;
9445;SDS011;4761;49.490;10.908;2023-03-13T07:58:46;1.00;;;0.90;;
9445;SDS011;4761;49.490;10.908;2023-03-13T08:01:22;1.60;;;0.80;;
9445;SDS011;4761;49.490;10.908;2023-03-13T08:03:50;1.90;;;0.93;;
9445;SDS011;4761;49.490;10.908;2023-03-13T08:06:18;1.60;;;1.10;;
9445;SDS011;4761;49.490;10.908;2023-03-13T08:08:47;1.10;;;0.80;;
9445;SDS011;4761;49.490;10.908;2023-03-13T08:11:22;0.90;;;0.63;;
9445;SDS011;4761;49.490;10.908;2023-03-13T08:13:49;1.77;;;1.00;;
9445;SDS011;4761;49.490;10.908;2023-03-13T08:16:16;1.30;;;0.87;;
9445;SDS011;4761;49.490;10.908;2023-03-13T08:18:44;0.97;;;0.70;;
9445;SDS011;4761;49.490;10.908;2023-03-13T08:21:12;1.37;;;0.80;;
9445;SDS011;4761;49.490;10.908;2023-03-13T08:23:38;1.50;;;0.90;;
9445;SDS011;4761;49.490;10.908;2023-03-13T08:26:08;1.57;;;1.00;;
9445;SDS011;4761;49.490;10.908;2023-03-13T08:28:36;0.93;;;0.80;;
9445;SDS011;4761;49.490;10.908;2023-03-13T08:33:37;1.97;;;1.07;;
9445;SDS011;4761;49.490;10.908;2023-03-13T08:36:20;1.33;;;1.03;;
9445;SDS011;4761;49.490;10.908;2023-03-13T08:38:49;1.83;;;0.90;;
9445;SDS011;4761;49.490;10.908;2023-03-13T08:41:16;1.57;;;1.00;;
9445;SDS011;4761;49.490;10.908;2023-03-13T08:43:44;1.70;;;0.90;;
9445;SDS011;4761;49.490;10.908;2023-03-13T08:46:11;1.23;;;0.93;;
9445;SDS011;4761;49.490;10.908;2023-03-13T08:48:37;0.80;;;0.60;;
9445;SDS011;4761;49.490;10.908;2023-03-13T08:51:07;1.40;;;0.90;;
9445;SDS011;4761;49.490;10.908;2023-03-13T08:53:33;1.03;;;0.60;;
9445;SDS011;4761;49.490;10.908;2023-03-13T08:55:59;0.60;;;0.57;;
9445;SDS011;4761;49.490;10.908;2023-03-13T08:58:26;1.43;;;0.90;;
9445;SDS011;4761;49.490;10.908;2023-03-13T09:00:53;0.70;;;0.70;;
9445;SDS011;4761;49.490;10.908;2023-03-13T09:03:19;1.07;;;0.80;;
9445;SDS011;4761;49.490;10.908;2023-03-13T09:05:45;0.73;;;0.70;;
9445;SDS011;4761;49.490;10.908;2023-03-13T09:08:12;1.37;;;1.00;;
9445;SDS011;4761;49.490;10.908;2023-03-13T09:10:38;1.03;;;0.70;;
9445;SDS011;4761;49.490;10.908;2023-03-13T09:13:04;1.97;;;0.87;;
9445;SDS011;4761;49.490;10.908;2023-03-13T09:15:29;3.33;;;1.23;;
9445;SDS011;4761;49.490;10.908;2023-03-13T09:17:55;2.70;;;1.00;;
9445;SDS011;4761;49.490;10.908;2023-03-13T09:20:22;5.47;;;0.90;;
9445;SDS011;4761;49.490;10.908;2023-03-13T09:22:47;4.30;;;1.30;;
9445;SDS011;4761;49.490;10.908;2023-03-13T09:25:13;2.60;;;1.13;;
9445;SDS011;4761;49.490;10.908;2023-03-13T09:27:39;2.10;;;0.90;;
9445;SDS011;4761;49.490;10.908;2023-03-13T09:30:05;1.77;;;1.00;;
9445;SDS011;4761;49.490;10.908;2023-03-13T09:32:31;2.90;;;1.00;;
9445;SDS011;4761;49.490;10.908;2023-03-13T09:34:57;2.40;;;0.97;;
9445;SDS011;4761;49.490;10.908;2023-03-13T09:37:23;2.67;;;1.10;;
9445;SDS011;4761;49.490;10.908;2023-03-13T09:39:49;2.87;;;1.07;;
9445;SDS011;4761;49.490;10.908;2023-03-13T09:42:16;6.13;;;1.13;;
9445;SDS011;4761;49.490;10.908;2023-03-13T09:44:48;2.37;;;1.07;;
9445;SDS011;4761;49.490;10.908;2023-03-13T09:47:53;1.80;;;0.90;;
9445;SDS011;4761;49.490;10.908;2023-03-13T09:50:23;1.93;;;1.00;;
9445;SDS011;4761;49.490;10.908;2023-03-13T09:53:02;3.90;;;1.10;;
9445;SDS011;4761;49.490;10.908;2023-03-13T09:55:40;1.53;;;0.90;;
9445;SDS011;4761;49.490;10.908;2023-03-13T09:58:22;0.90;;;0.77;;
9445;SDS011;4761;49.490;10.908;2023-03-13T10:00:59;3.10;;;1.00;;
9445;SDS011;4761;49.490;10.908;2023-03-13T10:03:29;1.37;;;0.90;;
9445;SDS011;4761;49.490;10.908;2023-03-13T10:06:11;1.47;;;1.00;;
9445;SDS011;4761;49.490;10.908;2023-03-13T10:08:43;2.50;;;0.80;;
9445;SDS011;4761;49.490;10.908;2023-03-13T10:13:59;1.40;;;0.90;;
9445;SDS011;4761;49.490;10.908;2023-03-13T10:16:55;1.60;;;0.87;;
9445;SDS011;4761;49.490;10.908;2023-03-13T10:19:50;1.53;;;1.00;;
9445;SDS011;4761;49.490;10.908;2023-03-13T10:22:24;1.50;;;0.80;;
9445;SDS011;4761;49.490;10.908;2023-03-13T10:27:50;2.10;;;0.80;;
9445;SDS011;4761;49.490;10.908;2023-03-13T10:30:21;1.00;;;0.80;;
9445;SDS011;4761;49.490;10.908;2023-03-13T10:32:48;1.07;;;0.90;;
9445;SDS011;4761;49.490;10.908;2023-03-13T10:35:20;0.67;;;0.67;;
9445;SDS011;4761;49.490;10.908;2023-03-13T10:37:47;1.50;;;0.90;;
9445;SDS011;4761;49.490;10.908;2023-03-13T10:40:24;2.57;;;0.90;;
9445;SDS011;4761;49.490;10.908;2023-03-13T10:42:52;1.17;;;0.77;;
9445;SDS011;4761;49.490;10.908;2023-03-13T10:45:25;2.23;;;0.90;;
9445;SDS011;4761;49.490;10.908;2023-03-13T10:47:54;1.03;;;0.93;;
9445;SDS011;4761;49.490;10.908;2023-03-13T10:50:24;1.00;;;0.63;;
9445;SDS011;4761;49.490;10.908;2023-03-13T10:52:51;0.83;;;0.83;;
9445;SDS011;4761;49.490;10.908;2023-03-13T10:55:24;1.27;;;0.90;;
9445;SDS011;4761;49.490;10.908;2023-03-13T10:57:51;1.40;;;0.90;;
9445;SDS011;4761;49.490;10.908;2023-03-13T11:03:01;2.17;;;1.00;;
9445;SDS011;4761;49.490;10.908;2023-03-13T11:05:32;2.50;;;1.40;;
9445;SDS011;4761;49.490;10.908;2023-03-13T11:08:12;3.43;;;1.53;;
9445;SDS011;4761;49.490;10.908;2023-03-13T11:10:57;2.70;;;1.60;;
9445;SDS011;4761;49.490;10.908;2023-03-13T11:16:02;3.27;;;1.20;;
9445;SDS011;4761;49.490;10.908;2023-03-13T11:21:47;3.17;;;1.80;;
9445;SDS011;4761;49.490;10.908;2023-03-13T11:24:33;3.07;;;1.77;;
9445;SDS011;4761;49.490;10.908;2023-03-13T11:32:22;2.97;;;1.80;;
9445;SDS011;4761;49.490;10.908;2023-03-13T11:34:57;2.80;;;2.10;;
9445;SDS011;4761;49.490;10.908;2023-03-13T11:37:26;2.10;;;1.90;;
9445;SDS011;4761;49.490;10.908;2023-03-13T11:40:03;2.67;;;1.77;;
9445;SDS011;4761;49.490;10.908;2023-03-13T11:45:27;2.03;;;1.83;;
9445;SDS011;4761;49.490;10.908;2023-03-13T11:56:21;5.13;;;3.50;;
9445;SDS011;4761;49.490;10.908;2023-03-13T12:01:46;3.43;;;2.80;;
9445;SDS011;4761;49.490;10.908;2023-03-13T12:04:19;3.60;;;2.80;;
9445;SDS011;4761;49.490;10.908;2023-03-13T12:07:09;4.83;;;2.50;;
9445;SDS011;4761;49.490;10.908;2023-03-13T12:10:03;3.97;;;2.93;;
9445;SDS011;4761;49.490;10.908;2023-03-13T12:12:48;4.77;;;2.80;;
9445;SDS011;4761;49.490;10.908;2023-03-13T12:15:20;3.70;;;2.73;;
9445;SDS011;4761;49.490;10.908;2023-03-13T12:18:23;3.87;;;2.90;;
9445;SDS011;4761;49.490;10.908;2023-03-13T12:21:02;2.97;;;2.57;;
9445;SDS011;4761;49.490;10.908;2023-03-13T12:26:14;3.27;;;2.50;;
9445;SDS011;4761;49.490;10.908;2023-03-13T12:31:42;3.63;;;2.07;;
9445;SDS011;4761;49.490;10.908;2023-03-13T12:34:33;2.37;;;2.10;;
9445;SDS011;4761;49.490;10.908;2023-03-13T12:37:32;2.60;;;1.90;;
9445;SDS011;4761;49.490;10.908;2023-03-13T12:42:54;2.17;;;1.97;;
9445;SDS011;4761;49.490;10.908;2023-03-13T12:45:26;2.10;;;1.90;;
9445;SDS011;4761;49.490;10.908;2023-03-13T12:50:35;2.65;;;2.10;;
9445;SDS011;4761;49.490;10.908;2023-03-13T12:56:17;2.03;;;1.83;;
9445;SDS011;4761;49.490;10.908;2023-03-13T13:01:26;2.10;;;1.80;;
9445;SDS011;4761;49.490;10.908;2023-03-13T13:04:10;1.77;;;1.67;;
9445;SDS011;4761;49.490;10.908;2023-03-13T13:09:22;2.73;;;1.70;;
9445;SDS011;4761;49.490;10.908;2023-03-13T13:11:49;2.93;;;1.57;;
9445;SDS011;4761;49.490;10.908;2023-03-13T13:16:41;1.70;;;1.60;;
9445;SDS011;4761;49.490;10.908;2023-03-13T13:24:53;1.83;;;1.37;;
9445;SDS011;4761;49.490;10.908;2023-03-13T13:32:51;2.00;;;1.53;;
9445;SDS011;4761;49.490;10.908;2023-03-13T13:35:19;1.67;;;1.30;;
9445;SDS011;4761;49.490;10.908;2023-03-13T13:37:45;1.53;;;1.23;;
9445;SDS011;4761;49.490;10.908;2023-03-13T13:42:55;1.80;;;1.40;;
9445;SDS011;4761;49.490;10.908;2023-03-13T13:45:23;1.70;;;1.40;;
9445;SDS011;4761;49.490;10.908;2023-03-13T13:48:12;1.40;;;1.30;;
9445;SDS011;4761;49.490;10.908;2023-03-13T13:59:15;8.27;;;1.57;;
9445;SDS011;4761;49.490;10.908;2023-03-13T14:01:46;4.07;;;1.20;;
9445;SDS011;4761;49.490;10.908;2023-03-13T14:07:19;1.87;;;1.27;;
9445;SDS011;4761;49.490;10.908;2023-03-13T14:12:58;3.23;;;1.10;;
9445;SDS011;4761;49.490;10.908;2023-03-13T14:15:25;3.38;;;1.40;;
9445;SDS011;4761;49.490;10.908;2023-03-13T14:17:53;4.13;;;1.30;;
9445;SDS011;4761;49.490;10.908;2023-03-13T14:20:34;2.83;;;1.37;;
9445;SDS011;4761;49.490;10.908;2023-03-13T14:23:05;3.27;;;1.20;;
9445;SDS011;4761;49.490;10.908;2023-03-13T14:30:48;1.73;;;0.93;;
9445;SDS011;4761;49.490;10.908;2023-03-13T14:33:15;3.37;;;1.73;;
9445;SDS011;4761;49.490;10.908;2023-03-13T14:35:41;1.30;;;0.90;;
9445;SDS011;4761;49.490;10.908;2023-03-13T14:38:14;1.57;;;0.90;;
9445;SDS011;4761;49.490;10.908;2023-03-13T14:40:51;1.37;;;0.87;;
9445;SDS011;4761;49.490;10.908;2023-03-13T14:43:24;1.53;;;0.90;;
9445;SDS011;4761;49.490;10.908;2023-03-13T14:45:57;1.73;;;1.00;;
9445;SDS011;4761;49.490;10.908;2023-03-13T14:50:59;1.10;;;1.00;;
9445;SDS011;4761;49.490;10.908;2023-03-13T14:53:31;1.33;;;0.70;;
9445;SDS011;4761;49.490;10.908;2023-03-13T14:56:59;2.83;;;0.90;;
9445;SDS011;4761;49.490;10.908;2023-03-13T14:59:07;0.80;;;0.80;;
9445;SDS011;4761;49.490;10.908;2023-03-13T15:01:41;2.40;;;1.30;;
9445;SDS011;4761;49.490;10.908;2023-03-13T15:04:06;2.10;;;0.90;;
9445;SDS011;4761;49.490;10.908;2023-03-13T15:06:32;1.33;;;0.80;;
9445;SDS011;4761;49.490;10.908;2023-03-13T15:09:14;4.00;;;1.10;;
9445;SDS011;4761;49.490;10.908;2023-03-13T15:11:56;2.23;;;0.90;;
9445;SDS011;4761;49.490;10.908;2023-03-13T15:19:41;2.30;;;0.90;;
9445;SDS011;4761;49.490;10.908;2023-03-13T15:22:11;1.80;;;1.07;;
9445;SDS011;4761;49.490;10.908;2023-03-13T15:24:39;1.30;;;0.80;;
9445;SDS011;4761;49.490;10.908;2023-03-13T15:27:15;1.97;;;0.83;;
9445;SDS011;4761;49.490;10.908;2023-03-13T15:29:42;2.47;;;0.90;;
9445;SDS011;4761;49.490;10.908;2023-03-13T15:32:11;3.33;;;1.03;;
9445;SDS011;4761;49.490;10.908;2023-03-13T15:34:42;3.17;;;1.30;;
9445;SDS011;4761;49.490;10.908;2023-03-13T15:37:10;2.17;;;1.10;;
9445;SDS011;4761;49.490;10.908;2023-03-13T15:39:37;4.90;;;1.57;;
9445;SDS011;4761;49.490;10.908;2023-03-13T15:42:02;2.83;;;1.37;;
9445;SDS011;4761;49.490;10.908;2023-03-13T15:44:28;3.97;;;1.90;;
9445;SDS011;4761;49.490;10.908;2023-03-13T15:46:53;3.20;;;1.37;;
9445;SDS011;4761;49.490;10.908;2023-03-13T15:49:19;3.77;;;1.80;;
9445;SDS011;4761;49.490;10.908;2023-03-13T15:51:45;4.27;;;1.97;;
9445;SDS011;4761;49.490;10.908;2023-03-13T15:54:10;3.03;;;1.80;;
9445;SDS011;4761;49.490;10.908;2023-03-13T15:56:36;4.37;;;1.90;;
9445;SDS011;4761;49.490;10.908;2023-03-13T15:59:12;4.03;;;2.00;;
9445;SDS011;4761;49.490;10.908;2023-03-13T16:01:39;5.03;;;1.87;;
9445;SDS011;4761;49.490;10.908;2023-03-13T16:04:05;4.50;;;2.13;;
9445;SDS011;4761;49.490;10.908;2023-03-13T16:06:31;3.80;;;1.97;;
9445;SDS011;4761;49.490;10.908;2023-03-13T16:08:57;4.57;;;2.10;;
9445;SDS011;4761;49.490;10.908;2023-03-13T16:11:26;4.67;;;2.23;;
9445;SDS011;4761;49.490;10.908;2023-03-13T16:13:52;5.47;;;2.10;;
9445;SDS011;4761;49.490;10.908;2023-03-13T16:16:25;5.47;;;2.13;;
9445;SDS011;4761;49.490;10.908;2023-03-13T16:18:55;4.33;;;1.97;;
9445;SDS011;4761;49.490;10.908;2023-03-13T16:21:22;4.30;;;2.17;;
9445;SDS011;4761;49.490;10.908;2023-03-13T16:23:50;3.37;;;1.80;;
9445;SDS011;4761;49.490;10.908;2023-03-13T16:26:17;3.00;;;1.70;;
9445;SDS011;4761;49.490;10.908;2023-03-13T16:28:47;3.43;;;1.90;;
9445;SDS011;4761;49.490;10.908;2023-03-13T16:31:22;4.03;;;2.00;;
9445;SDS011;4761;49.490;10.908;2023-03-13T16:33:49;4.03;;;1.47;;
9445;SDS011;4761;49.490;10.908;2023-03-13T16:36:16;3.60;;;1.63;;
9445;SDS011;4761;49.490;10.908;2023-03-13T16:38:44;3.07;;;1.70;;
9445;SDS011;4761;49.490;10.908;2023-03-13T16:41:14;12.23;;;2.93;;
9445;SDS011;4761;49.490;10.908;2023-03-13T16:43:42;9.83;;;2.53;;
9445;SDS011;4761;49.490;10.908;2023-03-13T16:46:12;8.23;;;2.20;;
9445;SDS011;4761;49.490;10.908;2023-03-13T16:48:38;7.73;;;2.20;;
9445;SDS011;4761;49.490;10.908;2023-03-13T16:51:04;5.57;;;2.07;;
9445;SDS011;4761;49.490;10.908;2023-03-13T16:53:30;4.87;;;1.87;;
9445;SDS011;4761;49.490;10.908;2023-03-13T16:55:55;6.97;;;2.13;;
9445;SDS011;4761;49.490;10.908;2023-03-13T16:58:21;8.63;;;2.10;;
9445;SDS011;4761;49.490;10.908;2023-03-13T17:00:46;4.47;;;1.77;;